createdAt,value
2022-07-30T00:02:11.495Z,46.13
2022-07-30T00:04:39.353Z,46.57
2022-07-30T00:07:07.334Z,46.99
2022-07-30T00:09:36.283Z,48.08
2022-07-30T00:12:04.837Z,49.00
2022-07-30T00:14:34.890Z,51.57
2022-07-30T00:17:03.323Z,53.23
2022-07-30T00:19:33.133Z,55.39
2022-07-30T00:22:01.016Z,57.44
2022-07-30T00:24:28.968Z,58.93
2022-07-30T00:26:56.867Z,60.41
2022-07-30T00:29:25.636Z,61.53
2022-07-30T00:31:53.524Z,63.14
2022-07-30T00:34:21.328Z,64.95
2022-07-30T00:36:50.590Z,65.99
2022-07-30T00:39:18.432Z,67.64
2022-07-30T00:42:00.557Z,68.41
2022-07-30T00:44:29.398Z,69.10
2022-07-30T00:46:58.208Z,68.88
2022-07-30T00:49:27.085Z,69.33
2022-07-30T00:51:56.418Z,70.05
2022-07-30T00:54:24.238Z,70.71
2022-07-30T00:56:52.243Z,71.69
2022-07-30T00:59:20.178Z,72.76
2022-07-30T01:01:48.153Z,74.07
2022-07-30T01:04:16.018Z,75.37
2022-07-30T01:06:43.845Z,76.22
2022-07-30T01:09:13.273Z,76.87
2022-07-30T01:11:42.673Z,77.43
2022-07-30T01:14:10.985Z,78.54
2022-07-30T01:16:41.416Z,78.28
2022-07-30T01:19:32.382Z,78.06
2022-07-30T01:22:09.361Z,78.84
2022-07-30T01:24:43.977Z,79.04
2022-07-30T01:27:19.644Z,80.02
2022-07-30T01:29:49.223Z,81.02
2022-07-30T01:32:18.862Z,82.15
2022-07-30T01:34:48.011Z,82.11
2022-07-30T01:37:17.916Z,82.21
2022-07-30T01:39:49.608Z,82.94
2022-07-30T01:42:20.393Z,83.02
2022-07-30T01:44:50.076Z,83.99
2022-07-30T01:47:20.402Z,83.88
2022-07-30T01:49:50.463Z,83.82
2022-07-30T01:52:19.195Z,83.22
2022-07-30T01:54:49.666Z,83.06
2022-07-30T01:57:20.801Z,82.96
2022-07-30T01:59:51.269Z,82.18
2022-07-30T02:02:20.656Z,82.41
2022-07-30T02:04:48.709Z,82.22
2022-07-30T02:07:21.072Z,82.61
2022-07-30T02:09:54.830Z,82.22
2022-07-30T02:12:29.099Z,83.01
2022-07-30T02:15:05.071Z,83.23
2022-07-30T02:17:45.065Z,84.33
2022-07-30T02:20:15.792Z,86.09
2022-07-30T02:22:48.167Z,87.13
2022-07-30T02:25:19.785Z,87.62
2022-07-30T02:27:53.542Z,88.16
2022-07-30T02:30:24.514Z,88.68
2022-07-30T02:32:52.681Z,88.88
2022-07-30T02:35:25.093Z,88.51
2022-07-30T02:37:55.678Z,88.14
2022-07-30T02:40:25.093Z,88.28
2022-07-30T02:42:55.066Z,88.21
2022-07-30T02:45:26.596Z,88.59
2022-07-30T02:47:58.523Z,88.61
2022-07-30T02:50:28.395Z,89.11
2022-07-30T02:52:58.912Z,89.99
2022-07-30T02:55:28.786Z,91.54
2022-07-30T02:57:59.962Z,91.62
2022-07-30T03:00:30.587Z,91.39
2022-07-30T03:03:00.290Z,91.59
2022-07-30T03:05:30.456Z,91.44
2022-07-30T03:08:01.571Z,91.61
2022-07-30T03:10:30.161Z,92.08
2022-07-30T03:13:00.733Z,92.38
2022-07-30T03:15:31.025Z,92.58
2022-07-30T03:18:01.046Z,92.59
2022-07-30T03:20:33.112Z,92.39
2022-07-30T03:23:04.107Z,91.80
2022-07-30T03:25:33.797Z,91.42
2022-07-30T03:28:04.892Z,91.22
2022-07-30T03:30:35.740Z,91.38
2022-07-30T03:33:04.565Z,91.81
2022-07-30T03:35:33.425Z,91.62
2022-07-30T03:38:02.376Z,91.86
2022-07-30T03:40:31.558Z,92.17
2022-07-30T03:43:00.362Z,92.30
2022-07-30T03:45:30.120Z,92.34
2022-07-30T03:48:08.777Z,92.71
2022-07-30T03:50:39.340Z,93.39
2022-07-30T03:53:08.714Z,94.21
2022-07-30T03:55:51.837Z,94.99
2022-07-30T03:58:53.498Z,95.83
2022-07-30T04:01:25.912Z,96.66
2022-07-30T04:04:05.525Z,96.91
2022-07-30T04:06:33.622Z,97.22
2022-07-30T04:09:02.977Z,97.35
2022-07-30T04:11:41.481Z,98.15
2022-07-30T04:14:16.058Z,98.11
2022-07-30T04:16:52.850Z,98.18
2022-07-30T04:19:29.454Z,98.62
2022-07-30T04:21:59.621Z,99.60
2022-07-30T04:24:29.387Z,100.00
2022-07-30T04:27:00.568Z,100.00
2022-07-30T04:29:28.947Z,100.00
2022-07-30T04:31:58.719Z,100.00
2022-07-30T04:34:48.929Z,100.00
2022-07-30T04:37:22.833Z,100.00
2022-07-30T04:39:54.161Z,100.00
2022-07-30T04:42:22.732Z,100.00
2022-07-30T04:45:01.101Z,100.00
2022-07-30T04:47:35.778Z,100.00
2022-07-30T04:50:35.624Z,100.00
2022-07-30T04:53:06.793Z,100.00
2022-07-30T04:55:41.701Z,100.00
2022-07-30T04:58:11.519Z,100.00
2022-07-30T05:00:41.528Z,100.00
2022-07-30T05:03:16.238Z,100.00
2022-07-30T05:05:56.753Z,100.00
2022-07-30T05:08:26.724Z,100.00
2022-07-30T05:10:55.246Z,100.00
2022-07-30T05:13:23.423Z,100.00
2022-07-30T05:16:02.290Z,100.00
2022-07-30T05:18:31.649Z,100.00
2022-07-30T05:20:59.667Z,100.00
2022-07-30T05:23:31.677Z,100.00
2022-07-30T05:26:14.658Z,100.00
2022-07-30T05:28:52.051Z,100.00
2022-07-30T05:31:26.129Z,100.00
2022-07-30T05:34:03.804Z,100.00
2022-07-30T05:36:41.188Z,100.00
2022-07-30T05:39:09.459Z,100.00
2022-07-30T05:41:57.543Z,100.00
2022-07-30T05:44:41.899Z,100.00
2022-07-30T05:47:09.750Z,100.00
2022-07-30T05:49:40.730Z,100.00
2022-07-30T05:52:13.937Z,100.00
2022-07-30T05:54:42.254Z,100.00
2022-07-30T05:57:37.022Z,100.00
2022-07-30T06:00:07.624Z,100.00
2022-07-30T06:02:53.583Z,100.00
2022-07-30T06:05:28.916Z,100.00
2022-07-30T06:08:00.696Z,100.00
2022-07-30T06:10:31.137Z,100.00
2022-07-30T06:12:59.888Z,100.00
2022-07-30T06:15:28.484Z,100.00
2022-07-30T06:17:59.550Z,100.00
2022-07-30T06:20:54.128Z,100.00
2022-07-30T06:23:48.165Z,100.00
2022-07-30T06:26:30.028Z,100.00
2022-07-30T06:28:57.902Z,100.00
2022-07-30T06:31:31.323Z,100.00
2022-07-30T06:33:59.368Z,100.00
2022-07-30T06:36:32.439Z,100.00
2022-07-30T06:39:07.486Z,100.00
2022-07-30T06:42:10.642Z,100.00
2022-07-30T06:45:02.528Z,100.00
2022-07-30T06:47:48.199Z,100.00
2022-07-30T06:50:16.032Z,100.00
2022-07-30T06:52:45.297Z,100.00
2022-07-30T06:55:13.289Z,100.00
2022-07-30T06:57:48.770Z,100.00
2022-07-30T07:00:39.330Z,100.00
2022-07-30T07:03:12.386Z,100.00
2022-07-30T07:05:41.276Z,100.00
2022-07-30T07:08:10.445Z,100.00
2022-07-30T07:10:44.125Z,100.00
2022-07-30T07:13:31.548Z,100.00
2022-07-30T07:16:00.447Z,100.00
2022-07-30T07:18:30.563Z,100.00
2022-07-30T07:21:06.305Z,100.00
2022-07-30T07:23:42.115Z,100.00
2022-07-30T07:26:30.771Z,100.00
2022-07-30T07:29:03.377Z,100.00
2022-07-30T07:32:02.833Z,100.00
2022-07-30T07:34:21.751Z,100.00
2022-07-30T07:36:49.698Z,100.00
2022-07-30T07:39:19.242Z,100.00
2022-07-30T07:41:48.783Z,100.00
2022-07-30T07:44:21.313Z,100.00
2022-07-30T07:46:49.332Z,100.00
2022-07-30T07:49:17.663Z,100.00
2022-07-30T07:51:49.346Z,100.00
2022-07-30T07:54:23.410Z,100.00
2022-07-30T07:56:56.674Z,100.00
2022-07-30T07:59:40.041Z,100.00
2022-07-30T08:02:12.840Z,100.00
2022-07-30T08:04:52.895Z,100.00
2022-07-30T08:07:36.953Z,100.00
2022-07-30T08:10:32.523Z,100.00
2022-07-30T08:13:04.049Z,100.00
2022-07-30T08:15:50.252Z,100.00
2022-07-30T08:18:41.277Z,100.00
2022-07-30T08:21:32.300Z,100.00
2022-07-30T08:24:00.172Z,100.00
2022-07-30T08:26:29.353Z,100.00
2022-07-30T08:28:57.180Z,100.00
2022-07-30T08:31:25.286Z,100.00
2022-07-30T08:33:53.457Z,100.00
2022-07-30T08:36:24.164Z,100.00
2022-07-30T08:38:54.404Z,100.00
2022-07-30T08:41:23.587Z,100.00
2022-07-30T08:43:54.615Z,100.00
2022-07-30T08:46:26.171Z,100.00
2022-07-30T08:49:09.149Z,100.00
2022-07-30T08:51:40.118Z,100.00
2022-07-30T08:54:23.558Z,100.00
2022-07-30T08:56:51.539Z,100.00
2022-07-30T08:59:24.357Z,100.00
2022-07-30T09:02:13.089Z,100.00
2022-07-30T09:04:55.631Z,100.00
2022-07-30T09:07:23.608Z,100.00
2022-07-30T09:09:51.642Z,100.00
2022-07-30T09:12:36.798Z,100.00
2022-07-30T09:15:12.103Z,100.00
2022-07-30T09:17:52.712Z,100.00
2022-07-30T09:20:23.742Z,100.00
2022-07-30T09:22:53.987Z,100.00
2022-07-30T09:25:37.633Z,100.00
2022-07-30T09:28:32.258Z,100.00
2022-07-30T09:31:17.417Z,100.00
2022-07-30T09:34:25.594Z,100.00
2022-07-30T09:37:20.422Z,100.00
2022-07-30T09:40:13.345Z,100.00
2022-07-30T09:43:06.697Z,100.00
2022-07-30T09:45:35.165Z,100.00
2022-07-30T09:48:21.848Z,100.00
2022-07-30T09:50:51.001Z,100.00
2022-07-30T09:53:19.718Z,99.71
2022-07-30T09:55:50.400Z,99.51
2022-07-30T09:58:27.047Z,99.57
2022-07-30T10:00:59.283Z,100.00
2022-07-30T10:03:48.620Z,100.00
2022-07-30T10:06:37.871Z,99.70
2022-07-30T10:09:29.711Z,100.00
2022-07-30T10:11:59.954Z,100.00
2022-07-30T10:14:33.973Z,100.00
2022-07-30T10:17:10.639Z,100.00
2022-07-30T10:19:42.903Z,100.00
2022-07-30T10:22:35.841Z,100.00
2022-07-30T10:25:30.376Z,100.00
2022-07-30T10:28:18.723Z,100.00
2022-07-30T10:30:50.401Z,100.00
2022-07-30T10:33:35.036Z,100.00
2022-07-30T10:36:08.988Z,99.33
2022-07-30T10:38:41.447Z,100.00
2022-07-30T10:41:22.090Z,98.43
2022-07-30T10:44:29.055Z,98.11
2022-07-30T10:47:07.102Z,97.40
2022-07-30T10:49:41.225Z,97.85
2022-07-30T10:52:12.467Z,97.81
2022-07-30T10:54:47.212Z,98.00
2022-07-30T10:57:32.367Z,97.70
2022-07-30T11:00:15.309Z,98.55
2022-07-30T11:03:22.196Z,98.38
2022-07-30T11:05:51.657Z,96.69
2022-07-30T11:08:42.962Z,96.14
2022-07-30T11:12:01.677Z,95.23
2022-07-30T11:15:06.788Z,93.94
2022-07-30T11:18:04.397Z,94.22
2022-07-30T11:20:34.272Z,93.48
2022-07-30T11:23:40.675Z,92.66
2022-07-30T11:26:14.166Z,92.31
2022-07-30T11:28:44.891Z,92.97
2022-07-30T11:31:57.024Z,94.23
2022-07-30T11:34:30.724Z,95.30
2022-07-30T11:37:19.247Z,95.91
2022-07-30T11:40:12.259Z,96.08
2022-07-30T11:42:42.806Z,95.67
2022-07-30T11:45:27.102Z,96.26
2022-07-30T11:47:57.634Z,95.71
2022-07-30T11:50:27.193Z,95.67
2022-07-30T11:52:57.457Z,95.47
2022-07-30T11:55:28.994Z,94.69
2022-07-30T11:57:58.089Z,93.88
2022-07-30T12:00:26.499Z,93.35
2022-07-30T12:02:54.636Z,93.03
2022-07-30T12:05:26.935Z,93.79
2022-07-30T12:07:58.832Z,93.73
2022-07-30T12:10:28.080Z,93.71
2022-07-30T12:13:09.005Z,93.70
2022-07-30T12:15:39.417Z,93.02
2022-07-30T12:20:59.315Z,90.46
2022-07-30T12:23:28.226Z,88.91
2022-07-30T12:25:58.188Z,89.02
2022-07-30T12:28:27.955Z,87.94
2022-07-30T12:30:57.449Z,87.69
2022-07-30T12:33:26.002Z,87.46
2022-07-30T12:35:55.615Z,86.62
2022-07-30T12:38:25.837Z,86.70
2022-07-30T12:41:01.173Z,85.62
2022-07-30T12:43:48.564Z,85.62
2022-07-30T12:46:19.007Z,85.45
2022-07-30T12:48:51.497Z,85.16
2022-07-30T12:51:20.112Z,84.02
2022-07-30T12:53:48.881Z,83.47
2022-07-30T12:56:18.959Z,82.26
2022-07-30T12:58:47.228Z,81.54
2022-07-30T13:01:17.188Z,79.96
2022-07-30T13:03:45.666Z,80.99
2022-07-30T13:06:19.507Z,80.48
2022-07-30T13:08:50.167Z,80.37
2022-07-30T13:11:20.584Z,80.37
2022-07-30T13:13:50.177Z,79.28
2022-07-30T13:16:19.092Z,78.86
2022-07-30T13:18:47.469Z,78.44
2022-07-30T13:21:15.588Z,77.21
2022-07-30T13:23:43.454Z,76.08
2022-07-30T13:26:12.514Z,75.94
2022-07-30T13:28:42.741Z,75.40
2022-07-30T13:31:10.646Z,74.95
2022-07-30T13:33:38.972Z,74.94
2022-07-30T13:36:07.964Z,74.58
2022-07-30T13:38:35.987Z,74.43
2022-07-30T13:41:05.268Z,73.52
2022-07-30T13:43:33.575Z,72.31
2022-07-30T13:46:04.067Z,70.82
2022-07-30T13:48:31.959Z,68.71
2022-07-30T13:51:01.200Z,65.61
2022-07-30T13:53:30.483Z,63.63
2022-07-30T13:55:59.449Z,62.30
2022-07-30T13:58:27.863Z,63.32
2022-07-30T14:00:55.772Z,61.94
2022-07-30T14:03:25.049Z,60.39
2022-07-30T14:05:53.815Z,58.05
2022-07-30T14:08:21.767Z,57.13
2022-07-30T14:10:50.292Z,56.08
2022-07-30T14:13:19.423Z,54.88
2022-07-30T14:15:49.596Z,54.94
2022-07-30T14:18:17.687Z,54.48
2022-07-30T14:20:48.939Z,53.84
2022-07-30T14:23:17.389Z,54.27
2022-07-30T14:25:45.328Z,52.76
2022-07-30T14:28:13.221Z,52.52
2022-07-30T14:30:41.290Z,52.48
2022-07-30T14:33:09.337Z,52.55
2022-07-30T14:35:37.417Z,51.05
2022-07-30T14:38:06.982Z,50.86
2022-07-30T14:40:35.094Z,50.86
2022-07-30T14:43:02.913Z,50.95
2022-07-30T14:45:30.814Z,49.02
2022-07-30T14:47:58.725Z,47.74
2022-07-30T14:50:26.575Z,46.66
2022-07-30T14:52:54.410Z,47.31
2022-07-30T14:55:23.762Z,48.37
2022-07-30T14:57:51.663Z,48.61
2022-07-30T15:00:19.635Z,48.31
2022-07-30T15:02:49.440Z,48.32
2022-07-30T15:05:17.426Z,47.96
2022-07-30T15:07:45.669Z,48.23
2022-07-30T15:10:13.632Z,48.51
2022-07-30T15:12:45.353Z,48.60
2022-07-30T15:15:14.068Z,49.78
2022-07-30T15:17:42.512Z,50.22
2022-07-30T15:20:11.501Z,50.11
2022-07-30T15:22:39.703Z,49.56
2022-07-30T15:25:09.358Z,50.20
2022-07-30T15:27:37.300Z,50.63
2022-07-30T15:30:07.438Z,51.36
2022-07-30T15:32:35.664Z,51.75
2022-07-30T15:35:04.665Z,51.79
2022-07-30T15:37:32.558Z,52.35
2022-07-30T15:40:00.341Z,51.63
2022-07-30T15:42:28.788Z,51.63
2022-07-30T15:45:16.200Z,51.53
2022-07-30T15:47:45.931Z,51.48
2022-07-30T15:50:15.421Z,50.50
2022-07-30T15:52:43.489Z,50.26
2022-07-30T15:55:11.719Z,48.62
2022-07-30T15:57:40.580Z,48.45
2022-07-30T16:00:09.479Z,48.17
2022-07-30T16:02:41.272Z,47.75
2022-07-30T16:05:14.268Z,48.42
2022-07-30T16:07:42.691Z,48.44
2022-07-30T16:10:11.143Z,48.00
2022-07-30T16:12:39.734Z,47.98
2022-07-30T16:15:09.408Z,48.08
2022-07-30T16:17:37.648Z,47.21
2022-07-30T16:20:06.394Z,47.33
2022-07-30T16:22:35.574Z,47.71
2022-07-30T16:25:03.446Z,47.58
2022-07-30T16:27:34.319Z,47.66
2022-07-30T16:30:04.176Z,47.77
2022-07-30T16:32:33.482Z,48.13
2022-07-30T16:35:01.842Z,48.08
2022-07-30T16:37:31.326Z,47.78
2022-07-30T16:40:06.283Z,47.36
2022-07-30T16:42:37.439Z,47.23
2022-07-30T16:45:06.034Z,46.70
2022-07-30T16:47:34.615Z,46.91
2022-07-30T16:50:02.432Z,46.34
2022-07-30T16:52:30.355Z,46.61
2022-07-30T16:54:58.151Z,46.68
2022-07-30T16:57:28.593Z,45.79
2022-07-30T16:59:58.746Z,45.42
2022-07-30T17:02:28.409Z,45.93
2022-07-30T17:04:56.954Z,45.93
2022-07-30T17:07:25.795Z,46.23
2022-07-30T17:09:55.487Z,46.69
2022-07-30T17:12:28.739Z,46.87
2022-07-30T17:14:59.170Z,46.72
2022-07-30T17:17:28.185Z,47.25
2022-07-30T17:19:58.571Z,47.31
2022-07-30T17:22:28.584Z,48.46
2022-07-30T17:24:59.808Z,50.60
2022-07-30T17:27:31.631Z,51.84
2022-07-30T17:30:00.465Z,52.71
2022-07-30T17:32:28.947Z,53.65
2022-07-30T17:35:01.420Z,52.68
2022-07-30T17:37:29.404Z,52.84
2022-07-30T17:40:27.149Z,53.12
2022-07-30T17:42:49.186Z,53.06
2022-07-30T17:45:18.267Z,52.74
2022-07-30T17:47:47.513Z,52.45
2022-07-30T17:50:15.782Z,52.49
2022-07-30T17:52:43.786Z,51.43
2022-07-30T17:55:13.244Z,51.75
2022-07-30T17:57:41.461Z,52.03
2022-07-30T18:00:11.862Z,52.74
2022-07-30T18:02:39.896Z,53.05
2022-07-30T18:05:08.970Z,53.67
2022-07-30T18:07:36.890Z,53.75
2022-07-30T18:10:05.478Z,54.40
2022-07-30T18:12:34.356Z,54.72
2022-07-30T18:15:03.026Z,55.37
2022-07-30T18:17:32.289Z,55.61
2022-07-30T18:20:00.655Z,55.41
2022-07-30T18:22:29.407Z,55.85
2022-07-30T18:25:00.822Z,56.01
2022-07-30T18:27:28.978Z,55.84
2022-07-30T18:29:56.844Z,56.49
2022-07-30T18:32:25.442Z,56.81
2022-07-30T18:34:54.658Z,57.13
2022-07-30T18:37:22.694Z,57.37
2022-07-30T18:39:50.502Z,57.85
2022-07-30T18:42:18.438Z,58.00
2022-07-30T18:44:53.975Z,58.16
2022-07-30T18:47:21.888Z,58.49
2022-07-30T18:49:50.277Z,58.73
2022-07-30T18:52:19.530Z,59.08
2022-07-30T18:54:47.790Z,59.41
2022-07-30T18:57:15.820Z,59.75
2022-07-30T18:59:43.851Z,59.87
2022-07-30T19:02:11.766Z,59.46
2022-07-30T19:04:39.620Z,60.04
2022-07-30T19:07:08.459Z,60.54
2022-07-30T19:09:37.793Z,60.53
2022-07-30T19:12:06.290Z,60.73
2022-07-30T19:14:34.677Z,60.79
2022-07-30T19:17:02.577Z,61.55
2022-07-30T19:19:30.572Z,61.75
2022-07-30T19:21:58.774Z,62.17
2022-07-30T19:24:27.620Z,62.45
2022-07-30T19:26:57.378Z,62.88
2022-07-30T19:29:25.608Z,62.89
2022-07-30T19:31:53.577Z,63.76
2022-07-30T19:34:21.429Z,63.81
2022-07-30T19:36:49.518Z,64.00
2022-07-30T19:39:21.852Z,64.12
2022-07-30T19:42:02.358Z,64.58
2022-07-30T19:44:31.721Z,65.08
2022-07-30T19:46:59.914Z,64.91
2022-07-30T19:49:29.647Z,65.10
2022-07-30T19:52:10.647Z,65.63
2022-07-30T19:54:46.183Z,65.84
2022-07-30T19:57:14.904Z,66.21
2022-07-30T19:59:57.872Z,66.49
2022-07-30T20:02:28.188Z,67.09
2022-07-30T20:04:56.052Z,67.32
2022-07-30T20:07:27.523Z,67.81
2022-07-30T20:09:55.695Z,68.02
2022-07-30T20:12:24.242Z,68.06
2022-07-30T20:14:53.708Z,68.30
2022-07-30T20:17:23.868Z,68.83
2022-07-30T20:19:59.501Z,69.30
2022-07-30T20:22:29.040Z,69.10
2022-07-30T20:24:57.253Z,69.35
2022-07-30T20:27:36.062Z,69.61
2022-07-30T20:30:09.090Z,70.08
2022-07-30T20:32:37.403Z,69.96
2022-07-30T20:35:07.761Z,70.17
2022-07-30T20:37:40.360Z,70.61
2022-07-30T20:40:24.280Z,71.26
2022-07-30T20:42:54.998Z,71.04
2022-07-30T20:45:25.348Z,71.29
2022-07-30T20:48:08.439Z,71.84
2022-07-30T20:50:46.168Z,72.17
2022-07-30T20:53:17.366Z,72.80
2022-07-30T20:55:45.335Z,73.23
2022-07-30T20:58:16.501Z,73.00
2022-07-30T21:00:49.586Z,73.14
2022-07-30T21:03:19.070Z,73.26
2022-07-30T21:05:52.561Z,73.55
2022-07-30T21:08:21.340Z,73.62
2022-07-30T21:10:54.993Z,73.74
2022-07-30T21:13:25.084Z,74.07
2022-07-30T21:16:02.970Z,74.58
2022-07-30T21:18:32.730Z,75.29
2022-07-30T21:21:01.616Z,75.78
2022-07-30T21:23:33.419Z,75.78
2022-07-30T21:26:05.955Z,76.43
2022-07-30T21:28:38.701Z,76.68
2022-07-30T21:31:09.629Z,76.86
2022-07-30T21:33:37.905Z,76.94
2022-07-30T21:36:10.183Z,77.59
2022-07-30T21:38:42.204Z,77.86
2022-07-30T21:41:14.474Z,78.20
2022-07-30T21:43:44.248Z,78.53
2022-07-30T21:46:14.701Z,78.76
2022-07-30T21:48:43.416Z,78.88
2022-07-30T21:51:12.081Z,79.70
2022-07-30T21:53:44.662Z,79.75
2022-07-30T21:56:13.896Z,80.19
2022-07-30T21:58:42.661Z,80.68
2022-07-30T22:01:17.132Z,81.25
2022-07-30T22:04:03.332Z,81.51
2022-07-30T22:06:37.888Z,81.63
2022-07-30T22:09:33.219Z,81.73
2022-07-30T22:12:06.497Z,81.46
2022-07-30T22:14:38.276Z,81.79
2022-07-30T22:17:06.199Z,81.89
2022-07-30T22:19:53.846Z,82.15
2022-07-30T22:22:27.680Z,82.26
2022-07-30T22:24:58.149Z,82.39
2022-07-30T22:27:26.441Z,82.20
2022-07-30T22:29:55.634Z,82.35
2022-07-30T22:32:24.250Z,82.63
2022-07-30T22:34:53.494Z,82.68
2022-07-30T22:37:22.139Z,82.43
2022-07-30T22:39:51.812Z,82.53
2022-07-30T22:42:24.366Z,82.97
2022-07-30T22:44:53.007Z,83.26
2022-07-30T22:47:51.022Z,83.93
2022-07-30T22:50:12.203Z,84.08
2022-07-30T22:52:50.147Z,84.35
2022-07-30T22:55:28.274Z,84.71
2022-07-30T22:57:57.694Z,85.52
2022-07-30T23:00:27.439Z,86.36
2022-07-30T23:02:57.339Z,86.92
2022-07-30T23:05:26.745Z,87.47
2022-07-30T23:07:54.753Z,88.19
2022-07-30T23:10:25.636Z,88.56
2022-07-30T23:12:55.747Z,88.84
2022-07-30T23:15:23.963Z,88.96
2022-07-30T23:17:51.802Z,89.18
2022-07-30T23:20:21.369Z,89.40
2022-07-30T23:22:51.250Z,89.67
2022-07-30T23:25:19.705Z,89.81
2022-07-30T23:27:47.677Z,89.85
2022-07-30T23:30:16.346Z,89.17
2022-07-30T23:32:44.488Z,89.24
2022-07-30T23:35:13.331Z,89.66
2022-07-30T23:37:49.111Z,89.38
2022-07-30T23:40:19.608Z,89.24
2022-07-30T23:42:47.592Z,89.24
2022-07-30T23:45:15.896Z,88.85
2022-07-30T23:48:01.470Z,89.08
2022-07-30T23:50:31.837Z,89.89
2022-07-30T23:52:59.804Z,90.93
2022-07-30T23:55:29.678Z,91.20
2022-07-30T23:57:57.978Z,91.55
